Time;durP1;ratioP1;P1;durP2;ratioP2;P2;SDS_P1;SDS_P2;PMS_P1;PMS_P2;Temp;Humidity;BMP_temperature;BMP_pressure;BME280_temperature;BME280_humidity;BME280_pressure;Samples;Min_cycle;Max_cycle;Signal;HPM_P1;HPM_P2
2022/10/19 00:01:21;;;;;;;;;;;15.90;62.70;;;11.79;100.00;96393.13;4993916;28;19908;-47
2022/10/19 00:03:54;;;;;;;;;;;15.90;62.80;;;11.81;100.00;96393.66;5024975;28;19958;-46
2022/10/19 00:06:37;;;;;;;;;;;15.90;62.80;;;11.79;100.00;96393.94;4993814;28;19909;-46
2022/10/19 00:09:19;;;;;;;;;;;15.90;62.80;;;11.75;100.00;96392.81;5009858;28;19958;-46
2022/10/19 00:11:50;;;;;;;;;;;15.90;62.80;;;11.69;100.00;96398.34;4977304;28;19979;-45
2022/10/19 00:14:22;;;;;;;;;;;15.90;62.80;;;11.63;100.00;96394.03;4976267;28;19916;-48
2022/10/19 00:16:53;;;;;;;;;;;15.80;62.70;;;11.56;100.00;96389.69;4987944;28;20004;-46
2022/10/19 00:19:39;;;;;;;;;;;15.80;62.70;;;11.48;100.00;96384.78;5009967;28;19913;-47
2022/10/19 00:22:04;;;;;;;;;;;15.80;62.70;;;11.45;100.00;96389.84;5008725;28;19963;-46
2022/10/19 00:24:37;;;;;;;;;;;15.70;62.60;;;11.40;100.00;96387.09;5026028;28;19909;-47
2022/10/19 00:27:02;;;;;;;;;;;15.70;62.60;;;11.38;100.00;96387.34;5009423;28;19912;-49
2022/10/19 00:29:28;;;;;;;;;;;15.70;62.70;;;11.33;100.00;96379.28;4976199;28;19931;-50
2022/10/19 00:31:54;;;;;;;;;;;15.60;62.70;;;11.31;100.00;96384.88;4992497;28;19999;-48
2022/10/19 00:34:25;;;;;;;;;;;15.60;62.80;;;11.26;100.00;96384.81;5009639;28;19942;-48
2022/10/19 00:36:51;;;;;;;;;;;15.60;62.80;;;11.23;100.00;96385.31;5010692;28;19917;-46
2022/10/19 00:39:18;;;;;;;;;;;15.60;63.00;;;11.20;100.00;96385.81;5009602;28;19913;-46
2022/10/19 00:41:46;;;;;;;;;;;15.50;63.00;;;11.18;100.00;96381.78;5009899;28;19920;-46
2022/10/19 00:44:12;;;;;;;;;;;15.50;63.10;;;11.14;100.00;96383.34;5010785;28;20351;-49
2022/10/19 00:46:42;;;;;;;;;;;15.40;63.00;;;11.12;100.00;96383.56;4992540;28;19948;-46
2022/10/19 00:49:21;;;;;;;;;;;15.40;63.00;;;11.12;100.00;96372.91;4993546;28;20016;-47
2022/10/19 00:52:00;;;;;;;;;;;15.40;63.10;;;11.18;100.00;96374.56;4991373;28;19913;-49
2022/10/19 00:54:27;;;;;;;;;;;15.40;63.30;;;11.27;100.00;96370.41;4989678;28;19928;-47
2022/10/19 00:57:09;;;;;;;;;;;15.40;63.50;;;11.42;100.00;96377.00;4990068;28;20191;-45
2022/10/19 00:59:43;;;;;;;;;;;15.40;63.80;;;11.50;100.00;96365.84;5022451;28;19913;-47
2022/10/19 01:02:09;;;;;;;;;;;15.40;64.00;;;11.60;100.00;96365.19;4989305;28;20298;-45
2022/10/19 01:04:44;;;;;;;;;;;15.50;64.20;;;11.68;100.00;96359.38;4989765;28;19916;-46
2022/10/19 01:07:14;;;;;;;;;;;15.60;64.40;;;11.73;100.00;96360.22;4989756;28;19973;-47
2022/10/19 01:09:49;;;;;;;;;;;15.60;64.40;;;11.79;100.00;96361.91;4989527;28;19967;-47
2022/10/19 01:13:04;;;;;;;;;;;15.70;64.40;;;11.90;100.00;96362.00;4973156;28;20387;-47
2022/10/19 01:16:03;;;;;;;;;;;15.80;64.40;;;11.98;100.00;96359.69;5004482;28;19917;-46
2022/10/19 01:18:33;;;;;;;;;;;15.80;64.50;;;12.02;100.00;96355.44;4991190;28;20016;-45
2022/10/19 01:21:38;;;;;;;;;;;15.90;64.50;;;12.03;100.00;96359.75;4984374;28;19910;-47
2022/10/19 01:24:35;;;;;;;;;;;16.00;64.50;;;12.13;100.00;96356.34;4976478;28;19910;-46
2022/10/19 01:28:01;;;;;;;;;;;16.00;64.50;;;12.20;100.00;96343.56;4989432;28;19909;-48
2022/10/19 01:31:16;;;;;;;;;;;16.10;64.60;;;12.26;100.00;96344.41;4976419;28;19913;-46
2022/10/19 01:34:30;;;;;;;;;;;16.20;64.60;;;12.32;100.00;96340.72;5001794;28;19979;-48
2022/10/19 01:37:27;;;;;;;;;;;16.20;64.60;;;12.31;100.00;96352.44;5005901;28;20399;-45
2022/10/19 01:40:03;;;;;;;;;;;16.30;64.60;;;12.34;100.00;96340.44;4989203;28;19928;-48
2022/10/19 01:42:33;;;;;;;;;;;16.30;64.60;;;12.37;100.00;96338.06;4992342;28;20414;-45
2022/10/19 01:45:26;;;;;;;;;;;16.30;64.60;;;12.35;100.00;96344.75;4988324;28;20343;-45
2022/10/19 01:48:23;;;;;;;;;;;16.40;64.60;;;12.33;100.00;96339.66;4993031;28;19917;-47
2022/10/19 01:51:15;;;;;;;;;;;16.30;64.40;;;12.27;100.00;96333.47;4991570;28;19910;-45
2022/10/19 01:53:51;;;;;;;;;;;16.40;64.40;;;12.14;100.00;96336.59;5018268;28;19928;-46
2022/10/19 01:56:24;;;;;;;;;;;16.30;64.20;;;12.09;100.00;96331.19;4992203;28;20011;-49
2022/10/19 01:58:51;;;;;;;;;;;16.30;64.20;;;12.02;100.00;96338.63;5024727;28;20299;-48
2022/10/19 02:01:32;;;;;;;;;;;16.20;64.10;;;11.92;100.00;96327.88;4991189;28;19996;-45
2022/10/19 02:04:01;;;;;;;;;;;16.10;64.00;;;11.82;100.00;96332.03;4991362;28;19951;-46
2022/10/19 02:06:27;;;;;;;;;;;16.10;63.90;;;11.75;100.00;96322.59;4992824;28;19948;-46
2022/10/19 02:08:54;;;;;;;;;;;16.10;64.00;;;11.69;100.00;96327.13;4992914;28;19964;-50
2022/10/19 02:11:23;;;;;;;;;;;16.00;64.00;;;11.68;100.00;96322.00;4993231;28;19979;-45
2022/10/19 02:14:10;;;;;;;;;;;15.90;64.10;;;11.67;100.00;96323.88;4992730;28;19939;-46
2022/10/19 02:17:04;;;;;;;;;;;15.90;64.30;;;11.59;100.00;96324.31;4992059;28;20319;-46
2022/10/19 02:19:30;;;;;;;;;;;15.90;64.40;;;11.52;100.00;96323.72;4992087;28;19983;-45
2022/10/19 02:21:57;;;;;;;;;;;15.80;64.30;;;11.44;100.00;96316.16;4991727;28;20364;-46
2022/10/19 02:24:23;;;;;;;;;;;15.70;64.30;;;11.34;100.00;96319.53;4989044;28;19909;-45
2022/10/19 02:26:49;;;;;;;;;;;15.70;64.30;;;11.33;100.00;96308.06;5019392;28;20319;-46
2022/10/19 02:29:15;;;;;;;;;;;15.60;64.20;;;11.31;100.00;96326.22;4992617;28;19909;-45
2022/10/19 02:31:44;;;;;;;;;;;15.50;64.30;;;11.25;100.00;96321.88;4991536;28;20476;-45
2022/10/19 02:34:12;;;;;;;;;;;15.50;64.40;;;11.18;100.00;96323.91;4991856;28;20380;-45
2022/10/19 02:36:41;;;;;;;;;;;15.50;64.40;;;11.10;100.00;96321.72;4993374;28;20441;-46
2022/10/19 02:39:15;;;;;;;;;;;15.40;64.30;;;11.04;100.00;96314.69;4987231;28;19940;-47
2022/10/19 02:42:26;;;;;;;;;;;15.30;64.40;;;10.93;100.00;96318.28;5020113;28;20290;-45
2022/10/19 02:45:46;;;;;;;;;;;15.20;64.40;;;10.87;100.00;96315.59;4986167;28;19910;-46
2022/10/19 02:48:24;;;;;;;;;;;15.20;64.50;;;10.83;100.00;96316.31;4995928;28;20348;-46
2022/10/19 02:50:50;;;;;;;;;;;15.10;64.60;;;10.75;100.00;96320.22;4975033;28;19909;-46
2022/10/19 02:53:25;;;;;;;;;;;15.10;64.70;;;10.71;100.00;96321.75;4991709;28;19913;-50
2022/10/19 02:55:51;;;;;;;;;;;15.00;64.80;;;10.70;100.00;96324.69;4995255;28;20005;-48
2022/10/19 02:58:20;;;;;;;;;;;14.90;64.80;;;10.68;100.00;96318.78;5011233;28;19919;-51
2022/10/19 03:00:52;;;;;;;;;;;14.90;64.90;;;10.63;100.00;96317.66;5012651;28;20298;-48
2022/10/19 03:03:20;;;;;;;;;;;14.90;65.00;;;10.57;100.00;96325.84;5025819;28;19955;-48
2022/10/19 03:05:49;;;;;;;;;;;14.80;64.90;;;10.55;100.00;96317.28;5012273;28;19915;-49
2022/10/19 03:08:17;;;;;;;;;;;14.80;65.00;;;10.54;100.00;96326.34;5012197;28;19935;-47
2022/10/19 03:10:45;;;;;;;;;;;14.70;65.10;;;10.52;100.00;96321.25;4977988;28;20646;-51
2022/10/19 03:13:17;;;;;;;;;;;14.70;65.20;;;10.55;100.00;96317.28;5011863;28;20283;-49
2022/10/19 03:15:49;;;;;;;;;;;14.70;65.30;;;10.58;100.00;96308.81;4993170;28;19913;-52
2022/10/19 03:18:20;;;;;;;;;;;14.70;65.40;;;10.58;100.00;96309.59;5011687;28;20016;-49
2022/10/19 03:21:10;;;;;;;;;;;14.70;65.50;;;10.51;100.00;96301.00;5010992;28;20427;-49
2022/10/19 03:23:41;;;;;;;;;;;14.70;65.50;;;10.48;100.00;96298.00;4978325;28;19913;-51
2022/10/19 03:26:13;;;;;;;;;;;14.70;65.50;;;10.49;100.00;96304.94;5012016;28;19932;-48
2022/10/19 03:28:44;;;;;;;;;;;14.60;65.60;;;10.42;100.00;96294.47;4977155;28;19909;-50
2022/10/19 03:31:11;;;;;;;;;;;14.60;65.60;;;10.41;100.00;96300.88;5011556;28;19916;-52
2022/10/19 03:33:36;;;;;;;;;;;14.60;65.60;;;10.38;100.00;96296.81;5010533;28;19913;-49
2022/10/19 03:36:12;;;;;;;;;;;14.60;65.60;;;10.34;100.00;96303.69;4994198;28;19909;-49
2022/10/19 03:38:38;;;;;;;;;;;14.60;65.60;;;10.33;100.00;96298.59;5025347;28;20567;-48
2022/10/19 03:41:07;;;;;;;;;;;14.60;65.70;;;10.29;100.00;96300.97;5011152;28;19909;-50
2022/10/19 03:43:40;;;;;;;;;;;14.50;65.60;;;10.25;100.00;96297.16;5011507;28;19917;-49
2022/10/19 03:46:07;;;;;;;;;;;14.50;65.60;;;10.16;100.00;96290.63;4992733;28;19916;-50
2022/10/19 03:48:38;;;;;;;;;;;14.50;65.60;;;10.07;100.00;96289.44;4993946;28;19932;-53
2022/10/19 03:51:09;;;;;;;;;;;14.40;65.50;;;10.00;100.00;96289.59;5009516;28;19917;-48
2022/10/19 03:53:39;;;;;;;;;;;14.40;65.50;;;9.93;100.00;96294.25;5011020;28;19921;-50
2022/10/19 03:56:17;;;;;;;;;;;14.30;65.40;;;9.88;100.00;96295.00;5007424;28;19948;-50
2022/10/19 03:58:48;;;;;;;;;;;14.30;65.50;;;9.84;100.00;96291.22;5011251;28;19917;-50
2022/10/19 04:01:38;;;;;;;;;;;14.20;65.60;;;9.80;100.00;96284.75;4977076;28;20326;-49
2022/10/19 04:04:13;;;;;;;;;;;14.20;65.60;;;9.74;100.00;96293.69;4992293;28;19909;-49
2022/10/19 04:06:42;;;;;;;;;;;14.10;65.70;;;9.73;100.00;96290.22;4994030;28;19916;-49
2022/10/19 04:09:12;;;;;;;;;;;14.00;65.70;;;9.73;100.00;96292.88;5010025;28;19909;-50
2022/10/19 04:11:38;;;;;;;;;;;14.10;65.90;;;9.86;100.00;96293.63;4993612;28;20000;-51
2022/10/19 04:14:16;;;;;;;;;;;14.10;66.20;;;9.98;100.00;96285.56;5010923;28;19909;-50
2022/10/19 04:16:48;;;;;;;;;;;14.10;66.40;;;10.08;100.00;96291.03;4990326;28;19916;-51
2022/10/19 04:19:20;;;;;;;;;;;14.20;66.60;;;10.14;100.00;96293.50;4993344;28;19944;-52
2022/10/19 04:21:49;;;;;;;;;;;14.30;66.90;;;10.22;100.00;96296.84;4991530;28;20410;-48
2022/10/19 04:24:17;;;;;;;;;;;14.40;66.70;;;10.31;100.00;96298.03;5010974;28;19909;-49
2022/10/19 04:26:53;;;;;;;;;;;14.50;66.80;;;10.41;100.00;96295.53;4992043;28;20438;-52
2022/10/19 04:29:22;;;;;;;;;;;14.60;66.80;;;10.51;100.00;96298.31;5010959;28;19909;-53
2022/10/19 04:31:50;;;;;;;;;;;14.70;66.80;;;10.65;100.00;96299.59;4976801;28;19913;-51
2022/10/19 04:34:17;;;;;;;;;;;14.80;66.90;;;10.74;100.00;96294.63;4976094;28;20373;-51
2022/10/19 04:36:44;;;;;;;;;;;14.90;66.90;;;10.89;100.00;96292.13;4977044;28;19912;-50
2022/10/19 04:39:18;;;;;;;;;;;15.00;66.90;;;11.17;100.00;96284.97;5009557;28;19924;-52
2022/10/19 04:41:44;;;;;;;;;;;15.10;67.20;;;11.32;100.00;96290.47;5010136;28;20375;-51
2022/10/19 04:44:14;;;;;;;;;;;15.20;67.10;;;11.48;100.00;96285.28;5011137;28;19920;-54
2022/10/19 04:46:40;;;;;;;;;;;15.40;67.30;;;11.62;100.00;96297.13;5009415;28;20002;-52
2022/10/19 04:49:13;;;;;;;;;;;15.50;67.20;;;11.75;100.00;96286.06;5010810;28;19971;-50
2022/10/19 04:51:44;;;;;;;;;;;15.60;67.20;;;11.82;100.00;96285.84;5009437;28;19986;-52
2022/10/19 04:54:10;;;;;;;;;;;15.70;67.20;;;11.89;100.00;96285.66;5009543;28;20020;-50
2022/10/19 04:56:44;;;;;;;;;;;15.80;67.20;;;11.94;100.00;96283.00;5009422;28;20035;-52
2022/10/19 04:59:10;;;;;;;;;;;15.90;67.20;;;11.98;100.00;96279.59;4979981;28;20276;-51
2022/10/19 05:01:40;;;;;;;;;;;16.00;67.10;;;12.02;100.00;96270.00;5010026;28;19946;-51
2022/10/19 05:04:06;;;;;;;;;;;16.10;67.20;;;12.03;100.00;96273.47;5008825;28;19917;-49
2022/10/19 05:06:32;;;;;;;;;;;16.10;67.00;;;12.07;100.00;96265.78;4992999;28;20023;-50
2022/10/19 05:08:58;;;;;;;;;;;16.20;67.00;;;12.09;100.00;96269.78;5007878;28;19909;-51
2022/10/19 05:11:28;;;;;;;;;;;16.20;67.00;;;12.09;100.00;96266.31;4992722;28;19908;-49
2022/10/19 05:13:56;;;;;;;;;;;16.30;66.90;;;12.02;100.00;96261.19;5025376;28;20437;-49
2022/10/19 05:16:23;;;;;;;;;;;16.30;67.00;;;12.05;100.00;96266.00;4996761;28;20015;-48
2022/10/19 05:18:58;;;;;;;;;;;16.30;66.90;;;12.04;100.00;96265.22;5014257;28;19968;-50
2022/10/19 05:21:27;;;;;;;;;;;16.30;66.90;;;12.01;100.00;96265.72;5012562;28;19917;-47
2022/10/19 05:23:56;;;;;;;;;;;16.30;66.80;;;11.95;100.00;96258.75;5014134;28;19944;-50
2022/10/19 05:26:26;;;;;;;;;;;16.40;67.00;;;11.99;100.00;96259.03;5013369;28;19909;-50
2022/10/19 05:29:03;;;;;;;;;;;16.30;66.90;;;12.02;100.00;96263.84;4980501;28;19909;-49
2022/10/19 05:31:32;;;;;;;;;;;16.30;66.90;;;12.05;100.00;96252.66;5013620;28;19916;-51
2022/10/19 05:34:04;;;;;;;;;;;16.30;66.90;;;12.10;100.00;96262.59;4995485;28;19909;-50
2022/10/19 05:36:37;;;;;;;;;;;16.30;66.90;;;12.10;100.00;96258.06;4996507;28;20473;-50
2022/10/19 05:39:12;;;;;;;;;;;16.30;67.00;;;12.10;100.00;96258.06;4979215;28;20303;-49
2022/10/19 05:41:39;;;;;;;;;;;16.30;67.00;;;12.09;100.00;96253.75;5012834;28;19917;-53
2022/10/19 05:44:05;;;;;;;;;;;16.40;67.10;;;12.10;100.00;96251.91;5013592;28;20342;-50
2022/10/19 05:46:33;;;;;;;;;;;16.40;67.10;;;12.10;100.00;96252.72;4982656;28;19921;-52
2022/10/19 05:48:59;;;;;;;;;;;16.40;67.10;;;12.08;100.00;96254.81;5013374;28;19913;-51
2022/10/19 05:51:27;;;;;;;;;;;16.40;67.10;;;12.08;100.00;96257.50;4998801;28;19916;-51
2022/10/19 05:53:55;;;;;;;;;;;16.30;67.10;;;12.07;100.00;96247.88;4975937;28;19921;-49
2022/10/19 05:56:27;;;;;;;;;;;16.40;67.10;;;12.08;100.00;96251.34;5004852;28;20000;-49
2022/10/19 05:58:59;;;;;;;;;;;16.40;67.20;;;12.05;100.00;96250.00;5028519;28;19913;-50
2022/10/19 06:01:27;;;;;;;;;;;16.40;67.20;;;12.02;100.00;96245.16;4995822;28;20291;-50
2022/10/19 06:03:58;;;;;;;;;;;16.40;67.30;;;12.04;100.00;96243.06;4978631;28;20011;-49
2022/10/19 06:06:25;;;;;;;;;;;16.40;67.30;;;12.03;100.00;96249.44;4993818;28;19952;-51
2022/10/19 06:08:54;;;;;;;;;;;16.30;67.30;;;12.04;100.00;96251.88;5020814;28;20287;-53
2022/10/19 06:11:28;;;;;;;;;;;16.40;67.40;;;12.03;100.00;96254.78;4979261;28;19909;-52
2022/10/19 06:14:01;;;;;;;;;;;16.40;67.30;;;12.03;100.00;96263.63;4996059;28;19913;-49
2022/10/19 06:16:29;;;;;;;;;;;16.40;67.40;;;12.01;100.00;96257.72;5011085;28;19917;-52
2022/10/19 06:18:59;;;;;;;;;;;16.40;67.40;;;12.06;100.00;96264.16;4995513;28;20371;-53
2022/10/19 06:21:29;;;;;;;;;;;16.40;67.40;;;12.08;100.00;96267.38;5025316;28;19909;-53
2022/10/19 06:24:02;;;;;;;;;;;16.40;67.40;;;12.09;100.00;96267.09;4979480;28;19947;-50
2022/10/19 06:26:30;;;;;;;;;;;16.50;67.40;;;12.13;100.00;96270.09;4977506;28;19916;-52
2022/10/19 06:28:59;;;;;;;;;;;16.50;67.40;;;12.14;100.00;96269.81;4945034;28;21666;-50
2022/10/19 06:31:32;;;;;;;;;;;16.50;67.40;;;12.18;100.00;96268.22;5007626;28;20433;-50
2022/10/19 06:33:58;;;;;;;;;;;16.60;67.40;;;12.14;100.00;96259.13;5026147;28;20004;-51
2022/10/19 06:36:28;;;;;;;;;;;16.60;67.30;;;12.22;100.00;96269.34;5012544;28;20000;-47
2022/10/19 06:38:58;;;;;;;;;;;16.70;67.40;;;12.24;100.00;96266.41;5012077;28;19917;-50
2022/10/19 06:41:30;;;;;;;;;;;16.70;67.40;;;12.25;100.00;96271.50;5012498;28;19945;-47
2022/10/19 06:43:56;;;;;;;;;;;16.70;67.40;;;12.28;100.00;96275.50;4978706;28;19908;-49
2022/10/19 06:46:24;;;;;;;;;;;16.80;67.30;;;12.31;100.00;96279.53;4991685;28;20355;-51
2022/10/19 06:48:56;;;;;;;;;;;16.80;67.30;;;12.34;100.00;96279.00;4990790;28;19943;-52
2022/10/19 06:51:26;;;;;;;;;;;16.80;67.30;;;12.36;100.00;96283.03;5011390;28;19909;-52
2022/10/19 06:53:53;;;;;;;;;;;16.90;67.30;;;12.42;100.00;96275.88;4978863;28;19927;-51
2022/10/19 06:56:19;;;;;;;;;;;16.90;67.20;;;12.48;100.00;96282.84;5011073;28;20363;-51
2022/10/19 06:58:45;;;;;;;;;;;17.00;67.20;;;12.40;100.00;96286.78;5006893;28;19920;-53
2022/10/19 07:01:12;;;;;;;;;;;17.00;67.20;;;12.47;100.00;96291.91;5024440;28;20284;-50
2022/10/19 07:03:39;;;;;;;;;;;17.10;67.10;;;12.53;100.00;96290.06;5009902;28;19909;-50
2022/10/19 07:06:08;;;;;;;;;;;17.10;67.00;;;12.57;100.00;96297.31;5001206;28;19909;-50
2022/10/19 07:08:42;;;;;;;;;;;17.10;67.10;;;12.64;100.00;96291.75;5026256;28;19909;-50
2022/10/19 07:11:21;;;;;;;;;;;17.20;67.10;;;12.60;100.00;96296.81;5027333;28;19909;-53
2022/10/19 07:13:51;;;;;;;;;;;17.30;67.10;;;12.61;100.00;96294.94;5027135;28;19913;-54
2022/10/19 07:16:18;;;;;;;;;;;17.30;67.00;;;12.57;100.00;96297.31;5013185;28;19909;-51
2022/10/19 07:18:53;;;;;;;;;;;17.30;66.90;;;12.59;100.00;96297.03;4994664;28;19925;-49
2022/10/19 07:21:23;;;;;;;;;;;17.30;67.10;;;12.40;100.00;96300.16;4993417;28;19962;-51
2022/10/19 07:23:51;;;;;;;;;;;17.30;66.80;;;12.43;100.00;96294.28;4994748;28;19919;-50
2022/10/19 07:26:26;;;;;;;;;;;17.30;66.70;;;12.54;100.00;96295.16;4994038;28;19909;-53
2022/10/19 07:28:55;;;;;;;;;;;17.30;66.80;;;12.58;100.00;96308.81;4978718;28;19953;-50
2022/10/19 07:31:23;;;;;;;;;;;17.30;66.80;;;12.64;100.00;96302.44;4994374;28;19924;-51
2022/10/19 07:34:03;;;;;;;;;;;17.40;66.90;;;12.69;100.00;96307.78;5010755;28;19913;-54
2022/10/19 07:36:32;;;;;;;;;;;17.40;66.80;;;12.65;100.00;96302.16;5010237;28;20310;-51
2022/10/19 07:39:05;;;;;;;;;;;17.50;66.80;;;12.70;100.00;96302.19;5009855;28;20368;-49
2022/10/19 07:41:37;;;;;;;;;;;17.50;66.70;;;12.68;100.00;96303.50;5011492;28;19992;-49
2022/10/19 07:44:03;;;;;;;;;;;17.50;66.70;;;12.62;100.00;96297.34;5010273;28;19916;-52
2022/10/19 07:46:35;;;;;;;;;;;17.50;66.60;;;12.57;100.00;96289.31;4989194;28;19910;-54
2022/10/19 07:49:20;;;;;;;;;;;17.60;66.60;;;12.43;100.00;96288.94;4998918;28;19932;-51
2022/10/19 07:51:53;;;;;;;;;;;17.60;66.40;;;12.44;100.00;96282.56;5001924;28;19951;-47
2022/10/19 07:54:20;;;;;;;;;;;17.60;66.40;;;12.48;100.00;96296.19;4991991;28;20021;-53
2022/10/19 07:56:45;;;;;;;;;;;17.60;66.30;;;12.43;100.00;96290.81;5009069;28;20364;-51
2022/10/19 07:59:13;;;;;;;;;;;17.50;66.20;;;12.54;100.00;96284.47;5011321;28;19962;-55
2022/10/19 08:01:40;;;;;;;;;;;17.60;66.40;;;12.61;100.00;96277.03;5011212;28;19963;-50
2022/10/19 08:04:06;;;;;;;;;;;17.60;66.40;;;12.51;100.00;96282.31;5010320;28;20367;-48
2022/10/19 08:06:38;;;;;;;;;;;17.60;66.40;;;12.57;100.00;96273.28;4998955;28;19913;-51
2022/10/19 08:09:04;;;;;;;;;;;17.60;66.40;;;12.69;100.00;96278.38;4990361;28;19941;-49
2022/10/19 08:11:33;;;;;;;;;;;17.60;66.40;;;12.72;100.00;96284.03;4993382;28;19916;-50
2022/10/19 08:14:08;;;;;;;;;;;17.60;66.50;;;12.83;100.00;96289.41;4993356;28;19909;-49
2022/10/19 08:16:43;;;;;;;;;;;17.60;66.50;;;12.76;100.00;96302.22;4992181;28;20409;-51
2022/10/19 08:19:14;;;;;;;;;;;17.70;66.50;;;12.84;100.00;96294.50;5010931;28;19913;-51
2022/10/19 08:21:44;;;;;;;;;;;17.70;66.50;;;12.83;100.00;96279.53;5009707;28;20351;-49
2022/10/19 08:24:15;;;;;;;;;;;17.80;66.50;;;12.85;100.00;96290.78;5009542;28;19916;-55
2022/10/19 08:26:44;;;;;;;;;;;17.80;66.50;;;12.80;100.00;96280.03;5008892;28;19955;-55
2022/10/19 08:29:19;;;;;;;;;;;17.80;66.40;;;12.72;100.00;96286.72;4993453;28;19909;-53
2022/10/19 08:31:47;;;;;;;;;;;17.80;66.30;;;12.71;100.00;96281.59;4993250;28;19959;-55
2022/10/19 08:34:14;;;;;;;;;;;17.80;66.20;;;12.71;100.00;96286.94;4992188;28;19913;-49
2022/10/19 08:36:43;;;;;;;;;;;17.80;66.30;;;12.63;100.00;96285.59;5010672;28;20391;-54
2022/10/19 08:39:11;;;;;;;;;;;17.80;66.10;;;12.79;100.00;96291.81;5024525;28;19920;-54
2022/10/19 08:41:52;;;;;;;;;;;17.90;66.30;;;12.80;100.00;96280.03;5005984;28;19964;-54
2022/10/19 08:45:02;;;;;;;;;;;17.90;66.20;;;12.84;100.00;96275.78;5002820;28;20292;-56
2022/10/19 08:47:58;;;;;;;;;;;17.90;66.10;;;12.80;100.00;96279.25;5009713;28;19944;-54
2022/10/19 08:50:47;;;;;;;;;;;18.00;66.00;;;12.81;100.00;96283.53;5010517;28;19909;-48
2022/10/19 08:56:10;;;;;;;;;;;18.10;65.90;;;12.75;100.00;96277.34;5012195;28;20383;-45
2022/10/19 08:58:35;;;;;;;;;;;18.10;65.80;;;12.84;100.00;96277.66;5014168;28;19917;-45
2022/10/19 09:01:20;;;;;;;;;;;18.20;65.80;;;12.82;100.00;96272.56;5014885;28;19939;-46
2022/10/19 09:04:31;;;;;;;;;;;18.20;65.60;;;13.05;100.00;96270.50;5013503;28;19959;-46
2022/10/19 09:07:43;;;;;;;;;;;18.30;65.60;;;12.92;100.00;96269.13;5014600;28;19913;-43
2022/10/19 09:10:28;;;;;;;;;;;18.40;65.50;;;13.05;100.00;96263.28;4991631;28;19955;-44
2022/10/19 09:13:39;;;;;;;;;;;18.40;65.40;;;13.11;100.00;96262.22;4985698;28;20008;-44
2022/10/19 09:16:10;;;;;;;;;;;18.50;65.30;;;13.15;100.00;96255.28;4991844;28;19910;-43
2022/10/19 09:18:40;;;;;;;;;;;18.50;65.20;;;13.25;100.00;96259.88;4989881;28;19917;-43
2022/10/19 09:21:22;;;;;;;;;;;18.60;65.10;;;13.24;100.00;96250.22;5011708;28;19920;-46
2022/10/19 09:24:14;;;;;;;;;;;18.70;65.10;;;13.14;100.00;96247.53;4997495;28;19916;-46
2022/10/19 09:26:58;;;;;;;;;;;18.80;64.90;;;13.34;100.00;96249.47;5012931;28;19909;-44
2022/10/19 09:29:38;;;;;;;;;;;18.90;64.80;;;13.41;100.00;96250.81;4977649;28;19909;-49
2022/10/19 09:32:29;;;;;;;;;;;19.00;65.60;;;13.51;100.00;96251.91;4995328;28;20039;-47
2022/10/19 09:35:49;;;;;;;;;;;19.10;64.70;;;13.60;100.00;96247.59;5016834;28;19916;-45
2022/10/19 09:38:15;;;;;;;;;;;19.20;64.40;;;13.68;100.00;96247.09;4931495;29;19970;-45
2022/10/19 09:40:42;;;;;;;;;;;19.40;64.40;;;13.88;99.81;96243.59;4995308;28;19991;-52
2022/10/19 09:43:19;;;;;;;;;;;19.50;64.20;;;13.79;100.00;96235.31;5020036;28;19909;-48
2022/10/19 09:45:55;;;;;;;;;;;19.50;64.00;;;13.81;99.02;96241.19;4975013;28;20380;-50
2022/10/19 09:48:46;;;;;;;;;;;19.60;63.90;;;13.97;99.96;96241.16;5002809;28;19915;-45
2022/10/19 09:51:16;;;;;;;;;;;19.60;63.80;;;14.10;98.67;96235.25;5010905;28;20007;-45
2022/10/19 09:53:54;;;;;;;;;;;19.70;63.70;;;14.17;97.56;96235.78;5019404;28;20305;-48
2022/10/19 09:56:25;;;;;;;;;;;19.80;63.50;;;14.08;96.00;96237.41;5029907;28;27060;-46
2022/10/19 09:58:56;;;;;;;;;;;20.00;63.40;;;14.14;97.20;96230.97;4991349;28;20418;-48
2022/10/19 10:01:39;;;;;;;;;;;20.10;63.00;;;14.31;96.44;96234.13;5009786;28;19913;-52
2022/10/19 10:04:14;;;;;;;;;;;20.10;62.80;;;14.53;95.20;96225.00;4997403;28;20007;-46
2022/10/19 10:06:48;;;;;;;;;;;20.40;62.90;;;14.69;93.82;96231.91;5013188;28;19909;-44
2022/10/19 10:09:25;;;;;;;;;;;20.50;62.60;;;14.71;93.01;96224.38;5011712;28;19920;-47
2022/10/19 10:11:55;;;;;;;;;;;20.70;62.30;;;14.84;92.65;96231.03;5013592;28;19934;-45
2022/10/19 10:14:35;;;;;;;;;;;20.90;62.10;;;15.19;91.58;96230.03;5016652;28;20015;-46
2022/10/19 10:17:26;;;;;;;;;;;21.20;61.80;;;15.20;89.00;96234.34;5010698;28;20423;-48
2022/10/19 10:19:58;;;;;;;;;;;21.50;61.50;;;15.18;90.17;96241.06;5012592;28;19976;-45
2022/10/19 10:22:36;;;;;;;;;;;21.70;61.00;;;15.27;88.94;96237.50;5016436;28;19908;-46
2022/10/19 10:25:16;;;;;;;;;;;21.80;60.70;;;15.08;90.61;96241.13;5015123;28;19940;-45
2022/10/19 10:28:26;;;;;;;;;;;21.80;60.30;;;15.11;91.12;96229.84;4994604;28;19920;-45
2022/10/19 10:31:03;;;;;;;;;;;21.80;60.10;;;15.37;89.23;96220.53;5022877;28;19908;-45
2022/10/19 10:33:38;;;;;;;;;;;21.80;60.20;;;15.27;89.50;96218.72;5027363;28;20491;-45
2022/10/19 10:36:08;;;;;;;;;;;21.70;60.10;;;15.33;90.30;96216.00;5017411;28;20371;-45
2022/10/19 10:38:54;;;;;;;;;;;21.60;60.10;;;15.39;90.65;96212.22;5012923;28;19912;-46
2022/10/19 10:41:23;;;;;;;;;;;21.40;60.10;;;15.44;90.04;96218.31;5011512;28;19908;-45
2022/10/19 10:43:54;;;;;;;;;;;21.40;60.30;;;15.15;91.27;96212.88;5014992;28;19913;-46
2022/10/19 10:46:33;;;;;;;;;;;21.30;60.20;;;15.16;91.23;96216.38;4985736;28;19912;-44
2022/10/19 10:49:19;;;;;;;;;;;21.10;60.20;;;15.00;92.17;96216.47;5023286;28;20290;-45
2022/10/19 10:51:53;;;;;;;;;;;21.00;60.20;;;15.07;92.19;96208.09;4999963;28;20003;-46
2022/10/19 10:54:30;;;;;;;;;;;20.90;60.20;;;15.01;91.70;96203.84;4997159;28;19913;-50
2022/10/19 10:57:17;;;;;;;;;;;20.90;60.40;;;14.87;92.86;96203.66;5009981;28;19913;-46
2022/10/19 11:00:22;;;;;;;;;;;20.80;60.30;;;14.69;94.55;96206.97;5017572;28;20283;-51
2022/10/19 11:02:51;;;;;;;;;;;20.70;60.20;;;14.72;94.30;96201.84;5011311;28;20627;-47
2022/10/19 11:05:28;;;;;;;;;;;20.60;60.30;;;14.71;94.19;96204.81;5006803;28;19913;-49
2022/10/19 11:08:50;;;;;;;;;;;20.60;60.50;;;14.72;93.50;96195.69;5015899;28;19915;-50
2022/10/19 11:11:47;;;;;;;;;;;20.50;60.50;;;14.78;93.05;96187.34;5007258;28;20382;-47
2022/10/19 11:15:23;;;;;;;;;;;20.50;60.50;;;14.75;93.75;96189.78;5004013;28;20697;-46
2022/10/19 11:18:19;;;;;;;;;;;20.50;60.50;;;14.83;92.80;96183.84;4999483;28;20329;-46
2022/10/19 11:21:24;;;;;;;;;;;20.60;60.50;;;14.88;92.51;96173.06;4977957;28;19916;-45
2022/10/19 11:24:17;;;;;;;;;;;20.60;60.40;;;15.01;92.14;96172.47;4998501;28;19920;-45
2022/10/19 11:27:28;;;;;;;;;;;20.70;60.20;;;15.03;90.99;96166.81;5011520;28;19913;-49
2022/10/19 11:30:14;;;;;;;;;;;20.80;60.10;;;15.13;91.13;96174.78;5010016;28;19917;-45
2022/10/19 11:33:19;;;;;;;;;;;20.90;60.00;;;15.05;90.16;96164.66;4999850;28;19913;-45
2022/10/19 11:36:16;;;;;;;;;;;21.00;60.00;;;15.15;91.07;96161.91;4997563;28;20375;-45
2022/10/19 11:38:50;;;;;;;;;;;21.10;59.80;;;15.31;89.31;96156.44;4997894;28;20012;-44
2022/10/19 11:41:48;;;;;;;;;;;21.20;59.70;;;15.34;89.29;96154.00;5023446;28;19917;-46
2022/10/19 11:44:58;;;;;;;;;;;21.40;59.50;;;15.42;87.99;96150.72;5000356;28;20338;-49
2022/10/19 11:48:20;;;;;;;;;;;21.50;59.50;;;15.32;87.57;96137.34;5011552;28;19913;-46
2022/10/19 11:51:07;;;;;;;;;;;21.60;59.30;;;15.18;88.43;96141.78;5005176;28;19944;-45
2022/10/19 11:53:50;;;;;;;;;;;21.70;59.00;;;15.48;88.20;96127.28;5008800;28;19913;-46
2022/10/19 11:56:32;;;;;;;;;;;21.80;58.90;;;15.78;86.28;96126.22;5021237;28;19921;-46